Disclaimer: Data is provisional and is subject to revision. Not to be used as official record

Enter Station name or Station Shef Code



Query Executed Mon Nov 28 11:51:04 PST 2022

SLPT_WX LMC Weather Station 41.5297 -119.05457
5909 Lower Mahogany Creek

Date / Time Air Temp C (C) Relative Humidity (%) Pressure (hPa) Wind Speed (mph) Wind Direction (Degree) Dew Point (C) Rainfall Annual (in) Solar Radiation (w/m^2) Snow Depth (in) SWE (in) Battery (V)
2022-11-28 11:00 AM -0.90 58.20 810.30 -8.08 34.79 34.79 273.20 273.20 109.30 0.00 8.48
2022-11-28 10:00 AM -1.60 59.50 811.10 -8.46 19.19 19.19 275.80 275.80 384.10 -274.80 8.33
2022-11-28 09:00 AM -1.30 62.60 811.30 -7.52 20.39 20.39 279.60 279.60 384.00 -274.70 8.52
2022-11-28 08:00 AM -2.20 67.20 811.40 -7.46 9.00 9.00 310.80 310.80 384.30 -275.00 8.42
2022-11-28 07:00 AM -1.10 67.00 811.20 -6.45 13.20 13.20 275.20 275.20 384.30 -275.00 8.35
2022-11-28 06:00 AM -1.10 64.40 811.00 -6.96 7.80 7.80 244.80 244.80 384.50 -275.20 8.49
2022-11-28 05:00 AM 0.00 61.10 811.40 -6.60 14.40 14.40 253.20 253.20 384.30 -275.00 8.48
2022-11-28 04:00 AM 0.00 63.20 811.70 -6.16 16.79 16.79 229.00 229.00 384.10 -274.80 8.47
2022-11-28 03:00 AM 0.00 61.70 812.10 -6.47 14.40 14.40 239.50 239.50 384.40 -275.10 8.44
2022-11-28 02:00 AM 0.20 60.70 812.30 -6.50 19.19 19.19 240.70 240.70 384.20 -274.90 8.30
2022-11-28 01:00 AM -0.10 67.70 813.10 -5.35 12.60 12.60 239.60 239.60 384.40 -275.10 8.39
2022-11-28 12:00 AM 0.50 63.40 813.50 -5.64 20.99 20.99 254.40 254.40 384.40 -275.10 8.25
2022-11-27 11:00 PM -0.10 69.40 814.40 -5.03 17.39 17.39 221.30 221.30 384.00 -274.70 8.37
2022-11-27 10:00 PM -0.60 70.30 815.20 -5.34 2.40 2.40 274.50 274.50 384.80 -275.50 8.49
2022-11-27 09:00 PM 1.60 62.30 815.30 -4.83 6.00 6.00 252.40 252.40 384.10 -274.80 8.25
2022-11-27 08:00 PM 1.80 57.70 815.60 -5.65 12.60 12.60 214.40 214.40 384.20 -274.90 8.17
2022-11-27 07:00 PM 2.40 54.90 816.20 -5.74 15.00 15.00 236.60 236.60 384.10 -274.80 8.15
2022-11-27 06:00 PM 2.60 51.30 816.60 -6.45 20.39 20.39 228.90 228.90 384.30 -275.00 8.30
2022-11-27 05:00 PM 2.40 53.80 817.30 -6.01 12.00 12.00 249.00 249.00 384.50 -275.20 8.03
2022-11-27 04:00 PM 3.60 48.20 818.10 -6.33 6.60 6.60 275.30 275.30 385.10 -275.80 7.93
2022-11-27 03:00 PM 5.00 39.70 818.10 -7.58 6.60 6.60 294.80 294.80 109.30 0.00 8.08
2022-11-27 02:00 PM 4.00 43.60 818.50 -7.27 12.60 12.60 285.20 285.20 109.30 0.00 8.03
2022-11-27 01:00 PM 5.20 38.70 819.20 -7.73 14.40 14.40 260.20 260.20 109.30 0.00 7.73
2022-11-27 12:00 PM 5.70 36.70 820.20 -7.97 15.59 15.59 235.80 235.80 109.30 0.00 7.98
2022-11-27 11:00 AM 4.00 40.70 820.80 -8.16 15.00 15.00 204.80 204.80 384.20 -274.90 8.80
2022-11-27 10:00 AM 2.80 46.70 821.10 -7.48 7.20 7.20 231.40 231.40 382.90 -273.60 8.96
2022-11-27 09:00 AM -1.20 68.50 821.30 -6.25 3.60 3.60 198.70 198.70 384.10 -274.80 9.15
2022-11-27 08:00 AM -9.00 96.40 821.50 -9.47 0.00 0.00 8.84 8.84 383.70 -274.40 9.09
2022-11-27 07:00 AM -11.60 84.30 821.50 -13.72 1.80 1.80 153.70 153.70 385.00 -275.70 8.89
2022-11-27 06:00 AM -9.80 96.50 821.40 -10.25 1.80 1.80 270.60 270.60 383.70 -274.40 8.92
2022-11-27 05:00 AM -12.00 90.60 821.90 -13.23 1.80 1.80 316.50 316.50 384.40 -275.10 8.99
2022-11-27 04:00 AM -12.10 97.60 821.70 -12.41 0.00 0.00 68.71 68.71 383.90 -274.60 8.90
2022-11-27 03:00 AM -13.80 92.60 822.50 -14.74 0.00 0.00 107.40 107.40 384.40 -275.10 8.89
2022-11-27 02:00 AM -11.50 100.00 823.20 -11.50 6.00 6.00 75.64 75.64 385.10 -275.80 8.96
2022-11-27 01:00 AM -10.30 100.00 823.80 -10.30 3.60 3.60 61.74 61.74 385.00 -275.70 8.94
2022-11-27 12:00 AM -10.20 92.40 824.00 -11.20 0.00 0.00 36.02 36.02 384.60 -275.30 8.85
2022-11-26 11:00 PM -10.70 100.00 824.20 -10.70 3.60 3.60 18.99 18.99 384.60 -275.30 8.89
2022-11-26 10:00 PM -7.70 83.40 824.60 -10.02 0.60 0.60 335.00 335.00 385.10 -275.80 8.76
2022-11-26 09:00 PM -8.70 84.10 825.00 -10.90 1.20 1.20 15.13 15.13 384.30 -275.00 8.62
2022-11-26 08:00 PM -5.90 71.80 825.00 -10.17 4.20 4.20 352.70 352.70 384.40 -275.10 8.64
2022-11-26 07:00 PM -5.60 71.90 824.80 -9.86 6.60 6.60 15.88 15.88 383.90 -274.60 8.88
2022-11-26 06:00 PM -3.40 65.10 824.70 -9.01 4.80 4.80 21.69 21.69 384.30 -275.00 8.77
2022-11-26 05:00 PM -2.80 72.30 824.90 -7.09 9.60 9.60 37.78 37.78 384.60 -275.30 8.47
2022-11-26 04:00 PM 2.30 54.00 825.00 -6.05 3.60 3.60 66.15 66.15 109.30 0.00 8.39
2022-11-26 03:00 PM 4.10 43.60 825.30 -7.18 15.59 15.59 19.42 19.42 109.30 0.00 8.34
2022-11-26 02:00 PM 4.10 50.40 825.00 -5.29 13.80 13.80 9.98 9.98 109.30 0.00 7.91
2022-11-26 01:00 PM 3.20 61.00 825.20 -3.60 7.80 7.80 56.43 56.43 109.30 0.00 7.74
2022-11-26 12:00 PM 3.00 57.70 825.70 -4.52 15.59 15.59 35.68 35.68 109.30 0.00 8.18
2022-11-26 11:00 AM 2.10 63.60 826.20 -4.08 14.40 14.40 50.45 50.45 109.30 0.00 8.49
2022-11-26 10:00 AM 1.00 69.60 826.70 -3.93 11.40 11.40 29.28 29.28 383.00 -273.70 8.85
2022-11-26 09:00 AM 0.80 79.80 826.30 -2.29 10.80 10.80 349.20 349.20 384.20 -274.90 9.07
2022-11-26 08:00 AM 0.40 83.10 826.30 -2.13 3.00 3.00 48.36 48.36 384.20 -274.90 8.88
2022-11-26 07:00 AM 0.20 87.40 825.50 -1.64 4.20 4.20 42.12 42.12 384.20 -274.90 8.92
2022-11-26 06:00 AM 0.30 87.40 825.20 -1.55 0.60 0.60 344.20 344.20 384.10 -274.80 8.71
2022-11-26 05:00 AM 1.30 75.40 824.80 -2.57 13.20 13.20 340.10 340.10 384.50 -275.20 8.89
2022-11-26 04:00 AM 2.30 48.10 824.30 -7.56 1.80 1.80 274.80 274.80 384.40 -275.10 8.83
2022-11-26 03:00 AM 1.80 47.90 824.20 -8.07 0.00 0.00 339.40 339.40 385.00 -275.70 8.82
2022-11-26 02:00 AM 0.90 52.10 824.30 -7.82 3.00 3.00 45.47 45.47 384.60 -275.30 8.78
2022-11-26 01:00 AM 1.90 47.90 824.00 -7.98 2.40 2.40 339.30 339.30 384.20 -274.90 8.80
2022-11-26 12:00 AM 2.10 46.10 824.70 -8.29 3.60 3.60 212.60 212.60 384.40 -275.10 8.56
2022-11-25 11:00 PM 2.30 41.10 825.20 -9.57 8.40 8.40 169.50 169.50 384.40 -275.10 8.53
2022-11-25 10:00 PM 3.50 38.30 825.20 -9.39 13.20 13.20 198.90 198.90 384.30 -275.00 8.53
2022-11-25 09:00 PM 4.00 38.20 825.60 -8.97 12.00 12.00 190.80 190.80 384.20 -274.90 8.50
2022-11-25 08:00 PM 3.70 41.60 825.70 -8.15 14.40 14.40 209.20 209.20 383.90 -274.60 8.37
2022-11-25 07:00 PM 3.40 40.80 825.80 -8.67 12.60 12.60 199.00 199.00 383.90 -274.60 8.44
2022-11-25 06:00 PM 3.60 38.50 826.00 -9.23 10.20 10.20 204.60 204.60 384.30 -275.00 8.42
2022-11-25 05:00 PM 2.50 42.60 826.00 -8.94 7.20 7.20 200.20 200.20 384.90 -275.60 8.42
2022-11-25 04:00 PM 5.50 32.40 826.20 -9.74 6.60 6.60 223.10 223.10 436.20 -326.90 8.30
2022-11-25 03:00 PM 6.30 29.60 826.30 -10.18 8.40 8.40 200.10 200.10 384.50 -275.20 8.07
2022-11-25 02:00 PM 8.40 27.20 826.00 -9.43 12.00 12.00 202.90 202.90 386.50 -277.20 7.82
2022-11-25 01:00 PM 6.50 28.50 827.10 -10.48 6.00 6.00 220.00 220.00 383.80 -274.50 8.03
2022-11-25 12:00 PM 7.60 26.10 827.80 -10.64 8.40 8.40 233.40 233.40 383.40 -274.10 7.77
2022-11-25 11:00 AM 7.20 27.60 828.80 -10.28 15.59 15.59 221.00 221.00 109.30 0.00 7.50
2022-11-25 10:00 AM 5.10 29.60 829.50 -11.23 9.00 9.00 212.80 212.80 109.30 0.00 8.34
2022-11-25 09:00 AM 2.50 32.80 829.40 -12.23 7.20 7.20 137.30 137.30 382.20 -272.90 8.53
2022-11-25 08:00 AM -0.90 44.80 829.40 -11.40 9.00 9.00 117.70 117.70 381.80 -272.50 8.60
2022-11-25 07:00 AM -1.90 46.30 829.00 -11.91 0.00 0.00 27.62 27.62 382.20 -272.90 8.44
2022-11-25 06:00 AM -2.10 45.60 828.80 -12.28 7.80 7.80 177.50 177.50 382.60 -273.30 8.58
2022-11-25 05:00 AM -3.20 50.00 828.80 -12.15 0.00 0.00 216.70 216.70 383.20 -273.90 8.36
2022-11-25 04:00 AM -1.60 44.30 829.20 -12.18 4.80 4.80 180.00 180.00 382.70 -273.40 8.32
2022-11-25 03:00 AM -2.70 46.20 829.30 -12.67 3.60 3.60 153.30 153.30 382.20 -272.90 8.26
2022-11-25 02:00 AM -10.70 78.70 829.90 -13.68 6.60 6.60 123.30 123.30 383.30 -274.00 8.41
2022-11-25 01:00 AM -11.70 81.10 830.60 -14.29 7.20 7.20 96.50 96.50 382.70 -273.40 8.36
2022-11-25 12:00 AM -10.10 78.40 830.80 -13.14 0.00 0.00 4.03 4.03 383.50 -274.20 8.44
2022-11-24 11:00 PM -8.40 83.70 831.40 -10.67 0.00 0.00 76.65 76.65 382.80 -273.50 8.38
2022-11-24 10:00 PM -8.10 74.10 831.80 -11.90 0.00 0.00 128.40 128.40 383.50 -274.20 8.54
2022-11-24 09:00 PM -5.60 70.60 832.10 -10.09 0.00 0.00 269.00 269.00 383.00 -273.70 8.35
2022-11-24 08:00 PM -6.30 72.40 831.90 -10.45 0.00 0.00 33.21 33.21 383.00 -273.70 8.29
2022-11-24 07:00 PM -5.80 66.20 832.00 -11.09 1.20 1.20 53.34 53.34 383.50 -274.20 8.24
2022-11-24 06:00 PM -0.10 47.40 832.00 -9.96 1.80 1.80 80.10 80.10 384.30 -275.00 8.44
2022-11-24 05:00 PM -0.20 45.20 831.90 -10.65 2.40 2.40 103.80 103.80 383.10 -273.80 8.29
2022-11-24 04:00 PM 5.10 34.70 831.90 -9.22 4.20 4.20 188.70 188.70 109.30 0.00 8.39
2022-11-24 03:00 PM 6.20 32.60 831.90 -9.04 4.20 4.20 238.90 238.90 382.20 -272.90 8.17
2022-11-24 02:00 PM 6.00 34.00 832.10 -8.68 10.80 10.80 243.10 243.10 109.30 0.00 8.02
2022-11-24 01:00 PM 5.80 33.40 832.40 -9.08 7.20 7.20 214.80 214.80 377.90 -268.60 7.93
2022-11-24 12:00 PM 4.90 35.50 832.80 -9.10 12.60 12.60 202.90 202.90 380.10 -270.80 7.76
2022-11-24 11:00 AM 4.80 33.70 833.10 -9.86 9.00 9.00 187.30 187.30 109.30 0.00 7.89
2022-11-24 10:00 AM 4.50 31.30 833.30 -11.05 0.00 0.00 268.00 268.00 109.30 0.00 8.67
2022-11-24 09:00 AM -2.00 60.70 833.30 -8.58 2.40 2.40 255.60 255.60 381.90 -272.60 8.81
2022-11-24 08:00 AM -11.00 90.80 833.20 -12.21 2.40 2.40 85.40 85.40 380.10 -270.80 8.66
2022-11-24 07:00 AM -13.90 83.50 833.00 -16.09 4.20 4.20 93.60 93.60 381.60 -272.30 8.41
2022-11-24 06:00 AM -13.90 86.20 832.60 -15.71 1.80 1.80 161.00 161.00 380.90 -271.60 8.41
2022-11-24 05:00 AM -13.70 85.70 832.20 -15.58 1.80 1.80 98.00 98.00 381.90 -272.60 8.49
2022-11-24 04:00 AM -12.90 94.00 832.10 -13.67 5.40 5.40 46.63 46.63 382.20 -272.90 8.37
2022-11-24 03:00 AM -10.40 80.40 831.90 -13.12 0.00 0.00 38.05 38.05 382.60 -273.30 8.40
2022-11-24 02:00 AM -12.70 89.40 831.50 -14.08 0.00 0.00 128.70 128.70 381.20 -271.90 8.40
2022-11-24 01:00 AM -10.40 83.80 831.40 -12.61 2.40 2.40 39.41 39.41 381.90 -272.60 8.46
2022-11-24 12:00 AM -10.60 80.20 831.30 -13.35 2.40 2.40 272.70 272.70 382.20 -272.90 8.50
2022-11-23 11:00 PM -9.20 86.80 831.20 -10.99 4.80 4.80 125.80 125.80 382.30 -273.00 8.44
2022-11-23 10:00 PM -8.10 74.80 830.80 -11.78 3.60 3.60 39.28 39.28 382.20 -272.90 8.49
2022-11-23 09:00 PM -6.10 75.80 830.60 -9.67 3.00 3.00 354.50 354.50 381.90 -272.60 8.42
2022-11-23 08:00 PM -2.70 62.10 830.30 -8.95 7.80 7.80 347.90 347.90 381.80 -272.50 8.64
2022-11-23 07:00 PM -2.70 61.30 829.90 -9.12 10.20 10.20 5.22 5.22 381.50 -272.20 8.54
2022-11-23 06:00 PM -3.00 65.00 830.00 -8.65 6.00 6.00 4.82 4.82 381.60 -272.30 8.84
2022-11-23 05:00 PM 1.00 53.00 829.40 -7.51 0.00 0.00 5.84 5.84 381.40 -272.10 8.64
2022-11-23 04:00 PM 3.10 49.90 829.00 -6.34 7.80 7.80 44.39 44.39 109.30 0.00 8.41
2022-11-23 03:00 PM 4.80 39.80 828.50 -7.73 12.00 12.00 23.10 23.10 380.80 -271.50 8.61
2022-11-23 02:00 PM 5.10 41.20 827.80 -7.01 10.80 10.80 20.18 20.18 380.00 -270.70 7.93
2022-11-23 01:00 PM 4.80 42.60 827.80 -6.85 14.40 14.40 61.15 61.15 380.20 -270.90 7.52
2022-11-23 12:00 PM 4.00 43.40 828.00 -7.33 6.00 6.00 353.10 353.10 380.90 -271.60 7.59
2022-11-23 11:00 AM 3.70 45.90 828.10 -6.88 6.60 6.60 64.53 64.53 380.70 -271.40 7.67
2022-11-23 10:00 AM 1.20 74.20 828.30 -2.88 12.60 12.60 49.41 49.41 109.30 0.00 8.18
2022-11-23 09:00 AM -3.90 100.00 828.00 -3.90 0.00 0.00 330.70 330.70 380.60 -271.30 8.23
2022-11-23 08:00 AM -10.70 100.00 827.60 -10.70 0.00 0.00 110.50 110.50 381.00 -271.70 7.93
2022-11-23 07:00 AM -12.90 93.20 826.80 -13.77 0.00 0.00 326.70 326.70 382.00 -272.70 7.82
2022-11-23 06:00 AM -11.60 100.00 826.20 -11.60 2.40 2.40 0.05 0.05 381.80 -272.50 7.74
2022-11-23 05:00 AM -11.50 99.70 825.80 -11.54 1.20 1.20 321.40 321.40 381.80 -272.50 7.69
2022-11-23 04:00 AM -8.80 100.00 825.60 -8.80 0.00 0.00 343.00 343.00 381.70 -272.40 7.83
2022-11-23 03:00 AM -3.90 94.10 825.20 -4.71 4.80 4.80 96.50 96.50 382.90 -273.60 7.81
2022-11-23 02:00 AM -7.00 100.00 825.00 -7.00 0.00 0.00 78.74 78.74 381.70 -272.40 7.88
2022-11-23 01:00 AM -5.80 86.80 824.80 -7.65 6.60 6.60 48.30 48.30 382.10 -272.80 7.88
2022-11-23 12:00 AM -4.40 87.60 824.70 -6.15 1.80 1.80 149.40 149.40 382.50 -273.20 7.83
2022-11-22 11:00 PM -0.60 79.00 824.30 -3.79 6.60 6.60 114.30 114.30 382.30 -273.00 7.90
2022-11-22 10:00 PM 2.40 66.30 824.00 -3.24 0.00 0.00 113.80 113.80 382.90 -273.60 8.10
2022-11-22 09:00 PM 3.10 53.60 823.50 -5.41 7.80 7.80 215.40 215.40 380.80 -271.50 7.92
2022-11-22 08:00 PM 3.00 56.40 822.80 -4.83 4.20 4.20 214.80 214.80 380.90 -271.60 8.00
2022-11-22 07:00 PM 1.90 53.20 822.40 -6.62 2.40 2.40 126.50 126.50 381.40 -272.10 7.95
2022-11-22 06:00 PM -2.30 56.10 822.10 -9.87 10.80 10.80 214.90 214.90 381.00 -271.70 7.86
2022-11-22 05:00 PM -1.40 54.60 821.80 -9.37 11.40 11.40 217.30 217.30 381.30 -272.00 7.82
2022-11-22 04:00 PM 0.90 47.00 821.90 -9.14 16.19 16.19 205.70 205.70 381.50 -272.20 7.85
2022-11-22 03:00 PM 2.50 42.50 822.50 -8.97 12.00 12.00 221.70 221.70 380.30 -271.00 7.82
2022-11-22 02:00 PM 4.30 35.30 822.50 -9.71 15.00 15.00 225.40 225.40 109.30 0.00 7.51
2022-11-22 01:00 PM 3.20 37.80 823.30 -9.83 12.00 12.00 219.10 219.10 381.30 -272.00 7.59
2022-11-22 12:00 PM 3.00 37.10 823.80 -10.24 11.40 11.40 203.40 203.40 109.30 0.00 7.56
2022-11-22 11:00 AM 3.40 35.70 824.20 -10.37 11.40 11.40 212.00 212.00 381.10 -271.80 7.68
2022-11-22 10:00 AM 1.70 43.60 824.80 -9.37 7.80 7.80 178.10 178.10 380.20 -270.90 8.18
2022-11-22 09:00 AM -2.40 63.00 824.80 -8.48 3.00 3.00 219.40 219.40 379.50 -270.20 8.45
2022-11-22 08:00 AM -11.00 98.60 824.60 -11.18 0.00 0.00 254.50 254.50 380.50 -271.20 7.96
2022-11-22 07:00 AM -13.10 97.70 824.70 -13.39 0.00 0.00 147.00 147.00 383.10 -273.80 7.86
2022-11-22 06:00 AM -13.70 90.40 824.60 -14.94 0.00 0.00 60.19 60.19 382.10 -272.80 7.86
2022-11-22 05:00 AM -15.10 98.30 824.80 -15.31 2.40 2.40 98.20 98.20 381.30 -272.00 7.83
2022-11-22 04:00 AM -12.90 87.00 824.80 -14.61 5.40 5.40 92.60 92.60 383.00 -273.70 7.85
2022-11-22 03:00 AM -11.80 82.40 825.10 -14.19 4.20 4.20 86.90 86.90 383.30 -274.00 7.75
2022-11-22 02:00 AM -12.00 93.90 825.30 -12.78 2.40 2.40 98.30 98.30 382.70 -273.40 7.80
2022-11-22 01:00 AM -13.20 86.50 825.30 -14.98 6.00 6.00 76.23 76.23 381.50 -272.20 7.98
2022-11-22 12:00 AM -10.20 82.20 825.40 -12.66 4.80 4.80 350.80 350.80 382.90 -273.60 7.95
2022-11-21 11:00 PM -9.20 78.50 825.80 -12.25 2.40 2.40 257.30 257.30 381.60 -272.30 7.97
2022-11-21 10:00 PM -7.90 65.70 826.00 -13.20 5.40 5.40 260.80 260.80 382.90 -273.60 7.88
2022-11-21 09:00 PM -11.10 82.40 825.60 -13.51 5.40 5.40 108.80 108.80 381.70 -272.40 7.94
2022-11-21 08:00 PM -8.50 68.30 826.10 -13.29 3.60 3.60 10.01 10.01 382.40 -273.10 8.09
2022-11-21 07:00 PM -4.20 53.60 826.10 -12.22 4.20 4.20 291.00 291.00 383.20 -273.90 7.99
2022-11-21 06:00 PM -4.50 64.00 825.50 -10.28 0.00 0.00 186.60 186.60 382.10 -272.80 8.12
2022-11-21 05:00 PM 0.00 46.00 825.30 -10.24 7.20 7.20 145.40 145.40 380.90 -271.60 7.75
2022-11-21 04:00 PM 1.80 41.20 825.20 -10.00 0.60 0.60 48.82 48.82 381.60 -272.30 7.69
2022-11-21 03:00 PM 3.40 35.30 825.30 -10.51 2.40 2.40 219.50 219.50 109.30 0.00 7.69
2022-11-21 02:00 PM 3.90 34.50 825.40 -10.36 5.40 5.40 212.70 212.70 109.30 0.00 7.46
2022-11-21 01:00 PM 3.60 34.20 825.50 -10.73 9.00 9.00 206.50 206.50 381.00 -271.70 7.09
2022-11-21 12:00 PM 3.00 35.50 825.80 -10.80 7.80 7.80 197.30 197.30 523.90 -414.60 7.54
2022-11-21 11:00 AM 2.90 33.20 826.30 -11.72 3.60 3.60 202.50 202.50 642.00 -532.70 7.90
2022-11-21 10:00 AM 0.20 43.30 826.50 -10.82 4.80 4.80 209.60 209.60 109.30 0.00 8.28
2022-11-21 09:00 AM -5.50 68.10 826.50 -10.45 0.00 0.00 340.20 340.20 379.50 -270.20 8.34
2022-11-21 08:00 AM -14.70 93.70 826.30 -15.49 3.00 3.00 96.00 96.00 381.40 -272.10 7.90
2022-11-21 07:00 AM -17.10 91.30 826.00 -18.18 2.40 2.40 84.90 84.90 382.70 -273.40 7.62
2022-11-21 06:00 AM -18.30 92.70 825.60 -19.20 3.00 3.00 154.60 154.60 382.10 -272.80 7.53
2022-11-21 05:00 AM -14.00 93.40 825.60 -14.84 3.00 3.00 354.40 354.40 383.60 -274.30 7.66
2022-11-21 04:00 AM -17.30 92.10 825.60 -18.28 2.40 2.40 144.90 144.90 382.30 -273.00 7.59
2022-11-21 03:00 AM -16.20 96.30 825.80 -16.66 1.80 1.80 5.71 5.71 382.80 -273.50 7.65
2022-11-21 02:00 AM -14.40 88.30 826.00 -15.91 3.60 3.60 100.10 100.10 383.20 -273.90 7.59
2022-11-21 01:00 AM -14.90 93.80 826.10 -15.68 0.00 0.00 86.50 86.50 382.50 -273.20 7.59
2022-11-21 12:00 AM -15.00 92.90 826.50 -15.89 4.80 4.80 51.52 51.52 383.00 -273.70 7.73
2022-11-20 11:00 PM -14.00 97.30 826.40 -14.34 3.60 3.60 76.79 76.79 382.10 -272.80 7.76
2022-11-20 10:00 PM -13.60 73.30 826.40 -17.35 4.80 4.80 354.60 354.60 382.90 -273.60 7.89
2022-11-20 09:00 PM -11.20 81.60 826.00 -13.72 1.80 1.80 152.20 152.20 383.60 -274.30 7.57
2022-11-20 08:00 PM -10.00 77.20 826.10 -13.23 5.40 5.40 99.60 99.60 383.20 -273.90 7.92
2022-11-20 07:00 PM -7.70 62.00 826.20 -13.72 1.80 1.80 0.02 0.02 383.10 -273.80 7.90
2022-11-20 06:00 PM -8.30 66.70 826.20 -13.39 3.60 3.60 1.35 1.35 382.80 -273.50 7.97
2022-11-20 05:00 PM -5.10 53.20 826.30 -13.15 4.20 4.20 107.30 107.30 382.60 -273.30 8.06
2022-11-20 04:00 PM 1.20 40.00 826.00 -10.91 6.00 6.00 203.40 203.40 382.20 -272.90 7.65
2022-11-20 03:00 PM 2.30 36.60 825.80 -11.04 6.60 6.60 236.10 236.10 382.00 -272.70 7.78
2022-11-20 02:00 PM 1.60 37.80 826.00 -11.26 4.80 4.80 162.70 162.70 468.50 -359.20 7.58
2022-11-20 01:00 PM 1.70 38.00 826.30 -11.11 10.20 10.20 195.00 195.00 381.70 -272.40 7.31
2022-11-20 12:00 PM 1.50 36.80 826.50 -11.69 10.20 10.20 231.00 231.00 109.30 0.00 7.45
2022-11-20 11:00 AM 0.40 39.70 827.30 -11.73 10.80 10.80 182.50 182.50 465.70 -356.40 7.96
2022-11-20 10:00 AM -0.70 46.90 827.70 -10.64 9.60 9.60 179.10 179.10 380.70 -271.40 8.43
2022-11-20 09:00 AM -7.90 93.90 827.80 -8.71 0.00 0.00 212.20 212.20 380.80 -271.50 8.39
2022-11-20 08:00 AM -16.00 96.80 827.70 -16.40 0.00 0.00 15.86 15.86 380.80 -271.50 7.83
2022-11-20 07:00 AM -18.90 87.70 827.30 -20.43 1.80 1.80 75.25 75.25 383.00 -273.70 7.49
2022-11-20 06:00 AM -18.60 91.50 827.30 -19.64 0.00 0.00 53.05 53.05 382.60 -273.30 7.65
2022-11-20 05:00 AM -18.00 91.60 827.30 -19.04 0.00 0.00 5.41 5.41 382.80 -273.50 7.67
2022-11-20 04:00 AM -16.30 100.00 827.10 -16.31 0.00 0.00 18.05 18.05 382.40 -273.10 7.48
2022-11-20 03:00 AM -16.50 95.90 827.10 -17.01 1.20 1.20 112.20 112.20 382.30 -273.00 7.54
2022-11-20 02:00 AM -17.60 94.80 827.30 -18.24 0.00 0.00 172.40 172.40 382.80 -273.50 7.50
2022-11-20 01:00 AM -15.00 100.00 827.30 -15.01 0.00 0.00 67.58 67.58 382.90 -273.60 7.67
2022-11-20 12:00 AM -15.40 95.90 827.60 -15.91 1.80 1.80 130.30 130.30 382.60 -273.30 7.78
2022-11-19 11:00 PM -16.20 100.00 827.70 -16.21 0.00 0.00 165.80 165.80 382.00 -272.70 7.55
2022-11-19 10:00 PM -14.20 96.50 827.70 -14.64 2.40 2.40 352.70 352.70 383.10 -273.80 7.67
2022-11-19 09:00 PM -14.60 91.70 827.70 -15.65 3.60 3.60 144.80 144.80 382.90 -273.60 7.82
2022-11-19 08:00 PM -10.90 80.70 827.30 -13.57 4.20 4.20 44.57 44.57 383.60 -274.30 7.77
2022-11-19 07:00 PM -11.90 77.90 827.10 -14.97 0.00 0.00 171.40 171.40 382.40 -273.10 7.92
2022-11-19 06:00 PM -8.60 69.00 826.90 -13.26 6.00 6.00 91.70 91.70 382.30 -273.00 7.86
2022-11-19 05:00 PM -4.80 56.60 826.80 -12.10 3.60 3.60 106.00 106.00 382.80 -273.50 7.97
2022-11-19 04:00 PM -1.50 52.00 826.90 -10.08 6.60 6.60 199.00 199.00 382.50 -273.20 7.79
2022-11-19 03:00 PM 0.20 45.40 826.90 -10.23 8.40 8.40 223.50 223.50 382.00 -272.70 7.78
2022-11-19 02:00 PM 0.10 44.60 827.10 -10.54 7.20 7.20 189.50 189.50 109.30 0.00 7.41
2022-11-19 01:00 PM -0.80 46.90 827.30 -10.74 12.60 12.60 193.90 193.90 109.30 0.00 7.12
2022-11-19 12:00 PM -1.60 50.40 827.70 -10.57 10.80 10.80 190.10 190.10 109.30 0.00 7.76
2022-11-19 11:00 AM -2.40 53.90 828.20 -10.47 7.80 7.80 204.80 204.80 381.70 -272.40 8.05
2022-11-19 10:00 AM -3.70 57.40 828.30 -10.89 4.80 4.80 219.40 219.40 109.30 0.00 8.31
2022-11-19 09:00 AM -8.20 96.80 828.10 -8.62 0.00 0.00 0.34 0.34 109.30 0.00 8.37
2022-11-19 08:00 AM -16.00 92.50 827.80 -16.94 0.00 0.00 170.10 170.10 381.60 -272.30 7.70
2022-11-19 07:00 AM -20.30 88.50 827.60 -21.71 0.00 0.00 179.40 179.40 382.30 -273.00 7.26
2022-11-19 06:00 AM -17.30 93.50 827.30 -18.10 0.00 0.00 3.19 3.19 384.00 -274.70 7.33
2022-11-19 05:00 AM -16.00 93.50 827.30 -16.81 0.00 0.00 351.50 351.50 384.50 -275.20 7.36
2022-11-19 04:00 AM -16.90 96.70 827.30 -17.31 0.00 0.00 105.70 105.70 384.50 -275.20 7.27
2022-11-19 03:00 AM -18.40 93.30 827.70 -19.22 0.00 0.00 106.00 106.00 382.50 -273.20 7.28
2022-11-19 02:00 AM -15.90 89.30 827.90 -17.26 1.20 1.20 53.85 53.85 383.50 -274.20 7.39
2022-11-19 01:00 AM -14.30 90.20 827.80 -15.56 4.80 4.80 79.05 79.05 382.50 -273.20 7.46
2022-11-19 12:00 AM -11.20 86.10 828.10 -13.06 4.80 4.80 330.50 330.50 382.40 -273.10 7.67
2022-11-18 11:00 PM -10.40 85.40 828.00 -12.38 10.80 10.80 354.50 354.50 382.70 -273.40 7.72
2022-11-18 10:00 PM -8.50 82.70 827.80 -10.91 11.40 11.40 52.20 52.20 381.80 -272.50 7.82
2022-11-18 09:00 PM -9.00 81.10 827.60 -11.65 7.20 7.20 28.97 28.97 382.20 -272.90 7.65
2022-11-18 08:00 PM -10.20 82.70 827.70 -12.58 13.20 13.20 69.99 69.99 382.30 -273.00 7.50
2022-11-18 07:00 PM -7.90 80.30 827.50 -10.70 10.20 10.20 67.24 67.24 381.80 -272.50 7.68
2022-11-18 06:00 PM -7.60 79.80 827.30 -10.48 13.80 13.80 70.39 70.39 381.80 -272.50 7.77
2022-11-18 05:00 PM -6.40 75.70 827.10 -9.98 15.00 15.00 77.94 77.94 381.70 -272.40 8.05
2022-11-18 04:00 PM -5.00 67.80 826.50 -10.03 17.39 17.39 53.30 53.30 465.40 -356.10 8.30
2022-11-18 03:00 PM -4.00 64.10 826.50 -9.78 13.20 13.20 37.32 37.32 381.70 -272.40 7.95
2022-11-18 02:00 PM -3.80 65.50 826.40 -9.32 13.20 13.20 12.45 12.45 381.90 -272.60 7.73
2022-11-18 01:00 PM -4.60 70.10 826.10 -9.22 21.59 21.59 56.01 56.01 381.30 -272.00 7.73
2022-11-18 12:00 PM -6.10 91.40 826.50 -7.27 13.20 13.20 48.02 48.02 425.20 -315.90 8.24
2022-11-18 11:00 AM -6.20 95.90 827.30 -6.75 13.80 13.80 48.62 48.62 383.30 -274.00 8.49
2022-11-18 10:00 AM -6.70 98.00 827.30 -6.97 8.40 8.40 45.70 45.70 381.40 -272.10 8.73
2022-11-18 09:00 AM -7.90 97.50 827.20 -8.23 8.40 8.40 54.79 54.79 381.80 -272.50 8.64
2022-11-18 08:00 AM -8.10 98.30 826.90 -8.32 16.79 16.79 39.83 39.83 382.10 -272.80 8.53
2022-11-18 07:00 AM -8.40 98.40 826.20 -8.61 18.59 18.59 37.79 37.79 381.90 -272.60 8.42
2022-11-18 06:00 AM -8.60 98.80 825.80 -8.76 10.80 10.80 47.96 47.96 381.90 -272.60 8.31
2022-11-18 05:00 AM -8.80 98.60 826.00 -8.98 11.40 11.40 39.90 39.90 382.00 -272.70 8.34
2022-11-18 04:00 AM -9.00 98.70 826.10 -9.17 12.60 12.60 60.75 60.75 382.10 -272.80 8.43
2022-11-18 03:00 AM -9.10 99.80 826.00 -9.13 14.40 14.40 65.77 65.77 382.00 -272.70 8.55
2022-11-18 02:00 AM -9.30 100.00 825.80 -9.30 8.40 8.40 8.49 8.49 382.00 -272.70 8.48
2022-11-18 01:00 AM -8.80 100.00 825.70 -8.80 9.00 9.00 33.75 33.75 382.00 -272.70 8.55
2022-11-18 12:00 AM -10.00 100.00 825.80 -10.00 17.99 17.99 49.19 49.19 381.80 -272.50 8.48
2022-11-17 11:00 PM -8.50 88.90 825.00 -10.00 15.59 15.59 30.95 30.95 382.20 -272.90 8.36
2022-11-17 10:00 PM -9.10 96.40 825.20 -9.57 13.20 13.20 335.70 335.70 381.70 -272.40 8.54
2022-11-17 09:00 PM -8.50 94.90 825.20 -9.17 13.80 13.80 6.94 6.94 381.40 -272.10 8.49
2022-11-17 08:00 PM -6.70 78.90 825.20 -9.75 9.60 9.60 22.33 22.33 381.60 -272.30 8.34
2022-11-17 07:00 PM -4.70 70.10 824.30 -9.32 9.60 9.60 6.13 6.13 382.20 -272.90 8.17
2022-11-17 06:00 PM -1.40 57.90 824.60 -8.62 9.00 9.00 22.00 22.00 382.30 -273.00 8.19
2022-11-17 05:00 PM -2.00 63.20 824.40 -8.06 11.40 11.40 35.84 35.84 382.20 -272.90 7.86
2022-11-17 04:00 PM 2.50 44.30 824.40 -8.44 0.00 0.00 0.00 0.00 8,108.30 272.70 9.16
2022-11-17 03:00 PM 4.30 34.60 824.40 -9.96 0.00 0.00 0.00 0.00 8,108.30 272.70 9.13
2022-11-17 02:00 PM 4.00 33.70 824.60 -10.56 0.00 0.00 0.00 0.00 8,108.30 362.20 9.05
2022-11-17 11:00 AM 2.30 39.40 826.50 3.90 130.00 -10.11 0.07 489.10 109.30 0.00 14.61
2022-11-17 10:00 AM 0.20 55.60 827.20 2.00 198.00 -7.64 3.38 399.20 3.10 0.00 14.05
2022-11-17 09:00 AM -7.00 84.30 827.20 0.30 60.00 -9.20 3.38 234.00 2.70 0.00 12.64
2022-11-17 08:00 AM -11.90 95.80 827.50 1.50 33.00 -12.44 3.38 269.20 2.90 0.00 12.45
2022-11-17 07:00 AM -15.90 100.00 827.90 0.30 273.00 -15.91 3.38 1.13 2.20 0.00 12.37
2022-11-17 06:00 AM -16.10 99.10 828.10 2.70 122.00 -16.21 3.38 -10.05 2.40 0.00 12.40
2022-11-17 05:00 AM -13.40 95.00 828.50 0.50 104.00 -14.03 3.38 -11.97 2.00 0.00 12.42
2022-11-17 04:00 AM -14.60 100.00 828.80 1.20 48.00 -14.61 3.38 -11.15 2.40 0.00 12.45
2022-11-17 03:00 AM -13.20 100.00 829.40 1.70 19.00 -13.20 3.38 -11.29 2.20 0.00 12.48
2022-11-17 02:00 AM -13.00 100.00 829.80 2.10 78.00 -13.00 3.38 -10.32 2.30 0.00 12.58
2022-11-17 01:00 AM -12.50 96.30 830.30 1.20 105.00 -12.97 3.38 -11.89 2.40 0.00 12.55
2022-11-17 12:00 AM -14.60 94.20 830.70 0.80 133.00 -15.33 3.38 -12.48 2.50 0.00 12.63
2022-11-16 11:00 PM -9.20 84.40 831.10 0.70 63.00 -11.35 3.38 -12.83 2.10 0.00 12.76
2022-11-16 10:00 PM -9.60 81.30 831.40 0.40 241.00 -12.20 3.38 -13.13 2.20 0.00 12.64
2022-11-16 09:00 PM -7.10 72.00 831.40 0.60 41.00 -11.29 3.38 -13.24 2.30 0.00 12.80
2022-11-16 08:00 PM -7.40 75.60 831.70 2.40 94.00 -10.97 3.38 -12.41 2.30 0.00 12.71
2022-11-16 07:00 PM -7.90 72.80 831.90 1.80 98.00 -11.93 3.38 -13.85 2.40 0.00 12.77
2022-11-16 06:00 PM -3.90 55.80 832.10 3.80 104.00 -11.44 3.38 -14.57 1.90 0.00 12.79
2022-11-16 05:00 PM -1.40 49.40 832.10 3.00 150.00 -10.64 3.38 -14.07 2.40 0.00 12.86
2022-11-16 04:00 PM 2.80 39.00 832.00 3.60 207.00 -9.79 3.38 117.20 109.30 0.00 14.35
2022-11-16 03:00 PM 4.20 31.80 832.10 5.80 208.00 -11.12 3.38 283.60 2.90 0.00 14.13
2022-11-16 02:00 PM 4.30 31.40 832.30 6.40 209.00 -11.19 3.38 428.50 2.70 0.00 14.37
2022-11-16 01:00 PM 4.00 31.20 832.90 8.00 222.00 -11.53 3.38 532.70 109.30 0.00 14.49
2022-11-16 12:00 PM 3.00 35.30 833.30 3.20 214.00 -10.87 3.38 569.90 -12.40 0.00 14.76
2022-11-16 11:00 AM 2.30 36.40 834.00 6.90 207.00 -11.11 3.38 553.30 109.30 0.00 14.68
2022-11-16 10:00 AM 1.00 41.80 834.50 2.90 237.00 -10.54 3.38 482.70 2.80 0.00 13.91
2022-11-16 09:00 AM -3.30 59.20 834.80 0.50 319.00 -10.13 3.38 355.80 2.50 0.00 12.71
2022-11-16 08:00 AM -10.80 85.30 834.60 1.40 225.00 -12.79 3.38 206.90 2.70 0.00 12.37
2022-11-16 07:00 AM -14.20 100.00 834.20 1.10 200.00 -14.21 3.38 0.86 2.10 0.00 12.31
2022-11-16 06:00 AM -14.50 99.40 833.90 0.40 215.00 -14.58 3.38 -11.25 2.50 0.00 12.48
2022-11-16 05:00 AM -15.80 100.00 834.20 1.90 319.00 -15.81 3.38 -10.54 2.50 0.00 12.37
2022-11-16 04:00 AM -13.90 84.40 834.30 1.80 34.00 -15.96 3.38 -11.03 2.40 0.00 12.38
2022-11-16 03:00 AM -13.50 80.20 834.20 1.00 340.00 -16.18 3.38 -10.84 2.60 0.00 12.42
2022-11-16 02:00 AM -12.50 67.20 834.20 2.30 111.00 -17.33 3.38 -13.85 1.90 0.00 12.45
2022-11-16 01:00 AM -12.20 85.60 834.00 0.40 311.00 -14.12 3.38 -12.72 2.30 0.00 12.62
2022-11-16 12:00 AM -11.90 80.10 834.10 2.50 314.00 -14.64 3.38 -11.61 2.60 0.00 12.52
2022-11-15 11:00 PM -7.80 83.80 833.90 3.90 78.00 -10.06 3.38 -11.97 2.40 0.00 12.54
2022-11-15 10:00 PM -8.00 90.80 833.90 7.00 27.00 -9.24 3.38 -11.62 3.00 0.00 12.57
2022-11-15 09:00 PM -8.20 85.80 833.60 3.90 38.00 -10.16 3.38 -12.62 2.60 0.00 12.62
2022-11-15 08:00 PM -5.70 79.40 833.10 6.70 1.00 -8.69 3.38 -13.08 2.70 0.00 12.65
2022-11-15 07:00 PM -7.00 82.40 832.90 6.80 3.00 -9.49 3.38 -12.09 2.90 0.00 12.69
2022-11-15 06:00 PM -6.40 77.70 832.70 9.70 343.00 -9.65 3.38 -12.98 2.80 0.00 12.73
2022-11-15 05:00 PM -3.60 66.70 831.90 8.50 45.00 -8.90 3.38 -12.54 2.90 0.00 12.79
2022-11-15 04:00 PM -1.80 57.00 831.30 11.80 31.00 -9.20 3.38 112.10 2.90 0.00 14.41
2022-11-15 03:00 PM -1.40 61.70 831.00 12.00 42.00 -7.80 3.38 279.50 -15.20 0.00 14.50
2022-11-15 02:00 PM -1.00 57.50 830.60 19.80 28.00 -8.33 3.38 427.70 2.00 0.00 14.88
2022-11-15 01:00 PM -1.20 58.10 830.70 12.70 39.00 -8.39 3.38 534.00 3.10 0.00 14.90
2022-11-15 12:00 PM -2.00 61.00 830.60 14.80 33.00 -8.52 3.38 582.20 -12.20 0.00 14.61
2022-11-15 11:00 AM -2.60 65.30 830.80 10.30 48.00 -8.21 3.38 570.50 2.50 0.00 13.64
2022-11-15 10:00 AM -3.90 68.40 830.80 15.10 36.00 -8.86 3.38 495.80 2.40 0.00 13.02
2022-11-15 09:00 AM -3.90 63.80 830.20 13.00 55.00 -9.75 3.38 373.80 2.80 0.00 12.51
2022-11-15 08:00 AM -6.00 82.20 830.00 9.40 32.00 -8.54 3.38 221.10 2.50 0.00 12.36
2022-11-15 07:00 AM -7.30 85.00 829.20 13.50 347.00 -9.39 3.38 1.12 2.60 0.00 12.27
2022-11-15 06:00 AM -7.00 88.50 828.60 14.50 9.00 -8.58 3.38 -10.79 2.30 0.00 12.36
2022-11-15 05:00 AM -6.10 81.00 828.50 8.20 59.00 -8.83 3.38 -12.22 2.00 0.00 12.38
2022-11-15 04:00 AM -5.70 82.40 828.10 12.10 37.00 -8.22 3.38 -11.62 2.10 0.00 12.40
2022-11-15 03:00 AM -5.40 79.30 828.00 6.40 56.00 -8.42 3.38 -11.99 2.10 0.00 12.43
2022-11-15 02:00 AM -6.70 87.30 827.60 8.60 46.00 -8.46 3.38 -12.51 2.70 0.00 12.46
2022-11-15 01:00 AM -6.70 91.30 827.30 8.40 0.00 -7.88 3.38 -11.94 2.70 0.00 12.52
2022-11-15 12:00 AM -5.60 87.80 827.40 5.30 348.00 -7.30 3.38 -12.81 2.70 0.00 12.51
2022-11-14 11:00 PM -6.30 90.70 827.10 5.70 338.00 -7.57 3.38 -12.31 2.90 0.00 12.54
2022-11-14 10:00 PM -6.80 92.00 826.90 4.40 356.00 -7.88 3.38 -13.07 2.80 0.00 12.57
2022-11-14 09:00 PM -5.60 95.80 826.70 8.50 24.00 -6.17 3.38 -12.00 3.00 0.00 12.60
2022-11-14 08:00 PM -6.80 94.60 826.10 5.70 1.00 -7.52 3.38 -12.34 2.90 0.00 12.64
2022-11-14 07:00 PM -6.50 93.10 825.90 5.30 24.00 -7.43 3.38 -12.83 2.90 0.00 12.69
2022-11-14 06:00 PM -4.60 79.10 825.70 7.10 21.00 -7.67 3.38 -13.70 2.70 0.00 12.73
2022-11-14 05:00 PM -3.10 76.60 825.30 12.00 64.00 -6.63 3.38 -11.69 2.90 0.00 12.79
2022-11-14 04:00 PM -1.60 68.30 825.10 11.40 47.00 -6.67 3.38 110.50 2.90 0.00 14.29
2022-11-14 03:00 PM 0.30 62.60 824.80 9.70 35.00 -6.00 3.38 275.80 2.70 0.00 14.26
2022-11-14 02:00 PM 1.80 56.00 824.60 8.20 35.00 -6.05 3.38 421.70 109.30 0.00 14.29
2022-11-14 01:00 PM 1.40 57.50 824.60 9.60 51.00 -6.07 3.38 529.50 3.20 0.00 14.45
2022-11-14 12:00 PM 1.50 50.50 824.70 5.20 212.00 -7.67 3.38 574.30 -14.50 0.00 14.71
2022-11-14 11:00 AM 0.30 55.40 825.20 4.20 179.00 -7.59 3.38 562.80 3.10 0.00 13.68
2022-11-14 10:00 AM -1.90 65.80 825.50 6.10 37.00 -7.45 3.38 496.60 2.90 0.00 13.11
2022-11-14 09:00 AM -4.30 75.90 825.50 6.50 38.00 -7.91 3.38 375.50 2.70 0.00 12.45
2022-11-14 08:00 AM -9.10 90.10 825.30 2.30 288.00 -10.43 3.38 221.10 2.90 0.00 12.28
2022-11-14 07:00 AM -16.10 96.00 824.80 1.90 5.00 -16.59 3.38 2.57 2.80 0.00 12.26
2022-11-14 06:00 AM -14.20 91.90 824.40 1.70 296.00 -15.23 3.38 -11.44 2.40 0.00 12.28
2022-11-14 05:00 AM -13.30 93.70 824.30 6.90 337.00 -14.10 3.38 -10.78 2.70 0.00 12.29
2022-11-14 04:00 AM -13.80 93.00 824.30 2.00 80.00 -14.69 3.38 -11.65 2.40 0.00 12.32
2022-11-14 03:00 AM -14.20 88.70 824.20 4.00 45.00 -15.66 3.38 -11.63 2.40 0.00 12.35
2022-11-14 02:00 AM -12.00 94.50 823.80 6.10 55.00 -12.71 3.38 -11.13 2.50 0.00 12.38
2022-11-14 01:00 AM -12.00 92.50 823.80 2.30 105.00 -12.97 3.38 -12.09 2.40 0.00 12.53
2022-11-14 12:00 AM -9.00 89.30 823.60 6.00 54.00 -10.44 3.38 -11.34 2.80 0.00 12.44
2022-11-13 11:00 PM -8.60 96.20 823.60 6.10 12.00 -9.10 3.38 -12.31 2.90 0.00 12.46
2022-11-13 10:00 PM -8.00 81.40 824.00 7.00 12.00 -10.62 3.38 -12.56 2.90 0.00 12.49
2022-11-13 09:00 PM -9.60 83.70 824.10 5.40 9.00 -11.84 3.38 -12.02 3.00 0.00 12.53
2022-11-13 08:00 PM -8.50 79.30 823.80 3.70 353.00 -11.44 3.38 -12.52 2.80 0.00 12.57
2022-11-13 07:00 PM -7.50 78.10 823.20 5.90 5.00 -10.66 3.38 -12.93 2.80 0.00 12.62
2022-11-13 06:00 PM -5.80 77.30 822.60 5.90 4.00 -9.13 3.38 -11.57 3.10 0.00 12.67
2022-11-13 05:00 PM -4.70 69.30 822.40 4.90 42.00 -9.46 3.38 -12.80 3.10 0.00 12.74
2022-11-13 04:00 PM -1.00 62.70 823.20 4.10 50.00 -7.21 3.38 110.90 3.00 0.00 14.05
2022-11-13 03:00 PM -0.30 68.90 823.00 7.40 40.00 -5.31 3.38 278.80 3.10 0.00 14.45
2022-11-13 02:00 PM 0.10 67.00 822.80 9.30 46.00 -5.30 3.38 427.60 3.20 0.00 14.22
2022-11-13 01:00 PM 1.00 58.10 822.30 6.60 32.00 -6.32 3.38 536.90 3.00 0.00 13.96
2022-11-13 12:00 PM 0.70 60.80 822.30 6.60 34.00 -6.00 3.38 582.80 3.30 0.00 13.70
2022-11-13 11:00 AM -0.80 59.80 822.60 9.00 20.00 -7.64 3.38 569.80 3.20 0.00 13.16
2022-11-13 10:00 AM -4.00 79.50 823.50 5.20 347.00 -7.02 3.38 492.80 3.10 0.00 12.81
2022-11-13 09:00 AM -7.00 94.00 823.50 5.80 342.00 -7.80 3.38 288.70 2.80 0.00 12.22
2022-11-13 08:00 AM -7.10 100.00 823.30 5.90 16.00 -7.10 3.38 120.50 2.70 0.00 12.01
2022-11-13 07:00 AM -7.40 100.00 822.60 3.30 358.00 -7.40 3.38 -1.64 2.80 0.00 11.99
2022-11-13 06:00 AM -7.20 100.00 822.10 6.40 35.00 -7.20 3.38 -8.26 2.60 0.00 12.01
2022-11-13 05:00 AM -6.80 100.00 821.90 4.20 55.00 -6.80 3.38 -8.62 2.80 0.00 12.03
2022-11-13 04:00 AM -8.90 100.00 821.80 4.60 28.00 -8.90 3.38 -7.46 2.90 0.00 12.05
2022-11-13 03:00 AM -6.80 96.30 821.10 4.80 64.00 -7.29 3.38 -11.60 3.10 0.00 12.07
2022-11-13 02:00 AM -5.70 92.40 820.90 5.10 16.00 -6.74 3.38 -9.79 3.20 0.00 12.12
2022-11-13 01:00 AM -5.80 100.00 821.20 5.30 12.00 -5.80 3.38 -8.95 3.30 0.00 12.11
2022-11-13 12:00 AM -5.80 100.00 821.00 7.10 35.00 -5.80 3.38 -8.71 3.40 0.00 12.12
2022-11-12 11:00 PM -5.60 100.00 820.70 5.70 34.00 -5.60 3.38 -8.85 3.30 0.00 12.14
2022-11-12 10:00 PM -5.50 100.00 820.30 7.30 58.00 -5.50 3.38 -8.65 3.50 0.00 12.16
2022-11-12 09:00 PM -5.00 97.70 820.10 6.40 52.00 -5.31 3.38 -9.04 3.50 0.00 12.18
2022-11-12 08:00 PM -4.50 92.30 819.60 4.30 41.00 -5.56 3.38 -9.08 3.60 0.00 12.22
2022-11-12 07:00 PM -4.10 97.60 819.40 6.50 34.00 -4.43 3.38 -9.08 3.50 0.00 12.26
2022-11-12 06:00 PM -3.40 86.60 819.10 4.50 351.00 -5.31 3.38 -9.93 3.40 0.00 12.34
2022-11-12 05:00 PM -3.30 85.80 818.80 2.50 21.00 -5.34 3.38 -10.17 3.30 0.00 12.42
2022-11-12 04:00 PM -2.00 81.40 818.20 6.10 353.00 -4.76 3.38 48.26 3.60 0.00 12.57
2022-11-12 03:00 PM -0.60 69.10 817.80 4.20 280.00 -5.56 3.37 145.20 3.80 0.00 13.30
2022-11-12 02:00 PM -0.80 77.40 817.40 6.70 343.00 -4.26 3.37 272.70 3.80 0.00 12.52
2022-11-12 01:00 PM -1.20 79.80 817.50 4.40 299.00 -4.24 3.37 308.00 3.90 0.00 12.32
2022-11-12 12:00 PM -2.70 100.00 817.60 6.50 315.00 -2.70 3.37 168.10 3.10 0.00 12.35
2022-11-12 11:00 AM 0.00 79.00 817.60 8.50 199.00 -3.20 3.37 939.00 2.70 0.00 13.29
2022-11-12 10:00 AM -2.20 92.30 817.90 3.10 200.00 -3.28 3.37 197.20 2.70 0.00 12.26
2022-11-12 09:00 AM -2.20 95.40 817.80 6.70 198.00 -2.84 3.37 183.00 2.70 0.00 12.24
2022-11-12 08:00 AM -3.20 90.10 817.60 0.70 319.00 -4.59 3.37 91.50 2.40 0.00 12.38
2022-11-12 07:00 AM -4.70 97.10 817.50 2.60 6.00 -5.09 3.37 2.68 2.30 0.00 12.21
2022-11-12 06:00 AM -5.10 92.10 817.50 2.40 352.00 -6.18 3.37 -9.76 2.40 0.00 12.33
2022-11-12 05:00 AM -4.30 84.00 817.40 4.30 306.00 -6.60 3.37 -10.18 2.30 0.00 12.21
2022-11-12 04:00 AM -4.10 83.50 817.70 1.50 166.00 -6.48 3.37 -10.25 2.60 0.00 12.34
2022-11-12 03:00 AM -4.30 83.20 817.50 1.40 160.00 -6.72 3.37 -9.78 2.50 0.00 12.25
2022-11-12 02:00 AM -4.50 83.50 817.60 1.50 27.00 -6.87 3.37 -10.46 2.40 0.00 12.41
2022-11-12 01:00 AM -4.70 83.80 817.80 3.60 97.00 -7.02 3.37 -10.94 2.30 0.00 12.27
2022-11-12 12:00 AM -4.90 85.50 818.50 3.20 158.00 -6.96 3.37 -11.07 2.40 0.00 12.29
2022-11-11 11:00 PM -4.70 85.00 818.80 3.20 179.00 -6.84 3.37 -10.88 2.30 0.00 12.30
2022-11-11 10:00 PM -6.00 89.70 819.40 1.90 164.00 -7.42 3.37 -12.40 2.20 0.00 12.34
2022-11-11 09:00 PM -5.10 87.50 819.70 3.20 135.00 -6.85 3.37 -11.68 2.40 0.00 12.34
2022-11-11 08:00 PM -3.80 85.60 819.60 8.90 174.00 -5.86 3.37 -10.13 2.50 0.00 12.36
2022-11-11 07:00 PM -3.30 80.10 819.80 5.50 167.00 -6.24 3.37 -11.63 2.50 0.00 12.38
2022-11-11 06:00 PM -2.80 76.40 820.30 1.60 158.00 -6.37 3.37 -12.93 2.50 0.00 12.41
2022-11-11 05:00 PM -1.80 72.30 820.30 4.00 197.00 -6.12 3.37 -10.61 2.50 0.00 12.45
2022-11-11 04:00 PM -1.40 68.70 820.50 7.80 221.00 -6.41 3.37 18.79 2.40 0.00 12.53
2022-11-11 03:00 PM -1.00 67.50 820.60 9.50 217.00 -6.25 3.37 105.80 2.50 0.00 12.68
2022-11-11 02:00 PM -0.80 68.50 820.70 9.70 232.00 -5.87 3.37 189.20 2.50 0.00 12.86
2022-11-11 01:00 PM -1.20 69.40 821.20 7.00 199.00 -6.08 3.37 286.70 2.60 0.00 13.11
2022-11-11 12:00 PM -1.80 71.40 821.80 12.20 199.00 -6.29 3.37 327.20 2.70 0.00 13.18
2022-11-11 11:00 AM -2.70 73.90 822.40 8.30 214.00 -6.71 3.37 426.10 2.60 0.00 13.32
2022-11-11 10:00 AM -3.00 75.20 822.80 7.40 190.00 -6.77 3.37 406.80 2.60 0.00 13.14
2022-11-11 09:00 AM -4.50 84.80 823.20 3.60 180.00 -6.67 3.37 261.50 2.50 0.00 12.70
2022-11-11 08:00 AM -10.20 97.60 823.30 0.60 43.00 -10.51 3.37 153.80 2.40 0.00 12.51
2022-11-11 07:00 AM -17.20 88.10 823.20 0.50 15.00 -18.70 3.37 21.53 2.50 0.00 12.32
2022-11-11 06:00 AM -15.80 100.00 823.30 1.10 49.00 -15.81 3.37 -10.31 2.00 0.00 12.30
2022-11-11 05:00 AM -15.70 95.20 823.50 0.80 5.00 -16.30 3.37 -10.94 2.00 0.00 12.34
2022-11-11 04:00 AM -15.50 98.20 823.70 0.90 313.00 -15.72 3.37 -11.23 1.90 0.00 12.36
2022-11-11 03:00 AM -16.40 95.00 823.90 1.90 133.00 -17.02 3.37 -11.46 2.10 0.00 12.32
2022-11-11 02:00 AM -15.70 76.30 824.60 0.60 83.00 -18.92 3.37 -12.70 1.70 0.00 12.50
2022-11-11 01:00 AM -15.60 98.80 824.80 1.90 7.00 -15.75 3.37 -11.12 2.00 0.00 12.42
2022-11-11 12:00 AM -16.00 88.50 824.80 1.40 43.00 -17.46 3.37 -11.48 2.10 0.00 12.47
2022-11-10 11:00 PM -16.50 94.20 824.80 2.80 35.00 -17.22 3.37 -11.07 2.10 0.00 12.49
2022-11-10 10:00 PM -13.00 88.00 824.90 0.40 342.00 -14.57 3.37 -12.30 2.10 0.00 12.65
2022-11-10 09:00 PM -12.70 84.30 825.00 4.30 119.00 -14.80 3.37 -11.88 1.90 0.00 12.56
2022-11-10 08:00 PM -10.70 89.20 825.10 3.10 69.00 -12.13 3.37 -10.91 2.20 0.00 12.60
2022-11-10 07:00 PM -10.70 89.00 825.00 1.40 309.00 -12.16 3.37 -12.42 2.30 0.00 12.76
2022-11-10 06:00 PM -8.50 75.20 824.80 2.30 337.00 -12.10 3.37 -13.82 2.20 0.00 12.71
2022-11-10 05:00 PM -5.70 63.90 824.70 4.20 73.00 -11.44 3.37 -13.84 2.30 0.00 12.77
2022-11-10 04:00 PM 0.10 42.40 824.80 2.80 282.00 -11.18 3.37 123.00 2.50 0.00 13.99
2022-11-10 03:00 PM 0.80 41.40 824.60 2.60 311.00 -10.84 3.37 295.10 2.60 0.00 14.39
2022-11-10 02:00 PM 0.50 53.10 824.70 4.00 210.00 -7.95 3.37 441.80 2.50 0.00 14.12
2022-11-10 01:00 PM 0.20 60.30 824.80 2.00 131.00 -6.58 3.37 561.30 2.40 0.00 14.23
2022-11-10 12:00 PM -0.40 56.80 825.00 7.30 179.00 -7.93 3.37 613.30 2.60 0.00 13.93
2022-11-10 11:00 AM -1.60 61.60 825.10 3.50 205.00 -8.01 3.37 593.90 2.70 0.00 13.84
2022-11-10 10:00 AM -2.30 76.80 824.60 1.20 288.00 -5.82 3.37 518.90 2.70 0.00 13.44
2022-11-10 09:00 AM -6.00 86.00 824.80 1.30 6.00 -7.96 3.37 393.00 2.50 0.00 12.33
2022-11-10 08:00 AM -12.60 97.00 825.00 0.60 343.00 -12.98 3.37 220.90 2.60 0.00 11.94
2022-11-10 07:00 AM -17.90 90.00 824.60 0.40 42.00 -19.14 3.37 2.83 2.40 0.00 11.87
2022-11-10 06:00 AM -18.20 96.80 824.10 0.80 51.00 -18.59 3.37 -8.80 2.70 0.00 11.90
2022-11-10 05:00 AM -19.90 92.30 823.70 1.00 107.00 -20.83 3.37 -10.21 2.60 0.00 11.95
2022-11-10 04:00 AM -18.40 95.70 823.60 0.70 61.00 -18.92 3.37 -10.06 2.30 0.00 12.01
2022-11-10 03:00 AM -17.10 95.50 823.80 1.00 352.00 -17.65 3.37 -10.21 2.60 0.00 12.03
2022-11-10 02:00 AM -16.30 97.70 823.60 0.90 55.00 -16.58 3.37 -10.82 2.30 0.00 12.11
2022-11-10 01:00 AM -15.50 90.60 823.50 1.30 340.00 -16.69 3.37 -12.90 2.00 0.00 12.11
2022-11-10 12:00 AM -12.90 100.00 823.30 1.40 112.00 -12.90 3.37 -10.29 2.10 0.00 12.25
2022-11-09 11:00 PM -15.90 91.10 822.90 2.60 28.00 -17.02 3.37 -11.48 2.40 0.00 12.20
2022-11-09 10:00 PM -12.30 99.60 822.70 3.90 8.00 -12.35 3.37 -11.98 2.30 0.00 12.24
2022-11-09 09:00 PM -10.20 99.50 822.30 1.30 130.00 -10.27 3.37 -11.46 2.30 0.00 12.31
2022-11-09 08:00 PM -5.40 79.50 822.10 1.30 262.00 -8.39 3.37 -13.51 2.00 0.00 12.45
2022-11-09 07:00 PM -4.80 81.40 821.70 2.90 260.00 -7.50 3.37 -9.15 2.80 0.00 12.37
2022-11-09 06:00 PM -4.80 69.60 821.00 0.40 3.00 -9.50 3.37 -11.19 2.50 0.00 12.43
2022-11-09 05:00 PM -5.30 63.10 819.60 3.90 68.00 -11.22 3.37 -12.58 2.50 0.00 12.42
2022-11-09 04:00 PM -2.10 53.50 818.50 8.30 337.00 -10.28 3.37 132.70 2.70 0.00 13.38
2022-11-09 03:00 PM -1.00 57.00 817.40 18.80 320.00 -8.44 3.37 306.50 2.70 0.00 13.53
2022-11-09 02:00 PM -1.50 59.30 816.90 8.60 354.00 -8.41 3.37 263.10 2.90 0.00 12.74
2022-11-09 01:00 PM -1.80 64.40 815.80 14.60 315.00 -7.63 3.37 338.50 2.80 0.00 12.85
2022-11-09 12:00 PM -2.00 72.10 814.60 7.70 315.00 -6.35 3.37 390.70 2.90 0.00 12.86
2022-11-09 11:00 AM -2.20 71.60 814.00 12.70 326.00 -6.64 3.37 373.30 2.80 0.00 12.81
2022-11-09 10:00 AM -3.80 87.10 812.90 11.00 307.00 -5.63 3.37 222.00 2.80 0.00 12.19
2022-11-09 09:00 AM -3.80 88.70 812.00 4.10 310.00 -5.39 3.37 190.60 2.70 0.00 11.95
2022-11-09 08:00 AM -3.20 93.40 810.80 6.70 249.00 -4.11 3.37 41.87 2.50 0.00 11.94
2022-11-09 07:00 AM -3.50 98.30 809.60 6.10 218.00 -3.73 3.37 -0.56 2.60 0.00 11.94
2022-11-09 06:00 AM -3.50 100.00 808.60 8.10 198.00 -3.50 3.37 -8.99 2.20 0.00 11.95
2022-11-09 05:00 AM -3.40 100.00 807.80 7.60 209.00 -3.40 3.37 -9.14 1.70 0.00 11.96
2022-11-09 04:00 AM -3.60 100.00 807.30 5.90 189.00 -3.60 3.37 -9.06 2.10 0.00 12.03
2022-11-09 03:00 AM -3.40 95.00 806.80 14.60 200.00 -4.09 3.37 -8.64 1.10 0.00 11.98
2022-11-09 02:00 AM -3.40 93.80 806.40 8.30 220.00 -4.26 3.37 -8.83 0.80 0.00 12.00
2022-11-09 01:00 AM -3.10 98.60 805.90 12.90 211.00 -3.29 3.37 -8.94 1.30 0.00 12.01
2022-11-09 12:00 AM -2.90 100.00 805.10 10.80 212.00 -2.90 3.37 -8.71 0.90 0.00 12.02
2022-11-08 11:00 PM -2.50 100.00 804.80 7.40 202.00 -2.50 3.37 -8.72 0.60 0.00 12.04
2022-11-08 10:00 PM -2.40 100.00 804.30 5.10 232.00 -2.40 3.37 -8.81 0.50 0.00 12.08
2022-11-08 09:00 PM -2.40 100.00 803.90 8.70 215.00 -2.40 3.37 -9.71 1.20 0.00 12.10
2022-11-08 08:00 PM -2.20 100.00 803.60 3.30 197.00 -2.20 3.37 -9.89 1.50 0.00 12.13
2022-11-08 07:00 PM -2.50 99.00 803.20 2.40 134.00 -2.64 3.37 -9.45 1.50 0.00 12.19
2022-11-08 06:00 PM -2.30 99.00 803.20 2.50 94.00 -2.44 3.37 -9.08 1.50 0.00 12.18
2022-11-08 05:00 PM -2.10 91.90 803.00 9.30 39.00 -3.24 3.37 -8.86 0.70 0.00 12.21
2022-11-08 04:00 PM -1.90 89.40 803.20 9.40 57.00 -3.41 3.37 9.68 1.40 0.00 12.24
2022-11-08 03:00 PM -1.40 81.70 803.80 8.20 80.00 -4.12 3.37 31.46 1.10 0.00 12.27
2022-11-08 02:00 PM -0.80 72.70 804.30 9.40 90.00 -5.09 3.37 92.10 1.00 0.00 12.33
2022-11-08 01:00 PM -0.90 71.80 805.30 7.00 74.00 -5.35 3.37 103.60 1.20 0.00 12.37
2022-11-08 12:00 PM -0.90 66.70 806.20 10.30 75.00 -6.31 3.37 121.10 1.30 0.00 12.42
2022-11-08 11:00 AM -0.80 63.80 807.60 5.30 49.00 -6.80 3.37 210.70 1.60 0.00 12.57
2022-11-08 10:00 AM -0.40 58.40 808.10 13.00 103.00 -7.57 3.37 137.20 1.60 0.00 12.45
2022-11-08 09:00 AM -1.30 64.10 808.90 7.60 36.00 -7.21 3.37 272.30 1.50 0.00 12.50
2022-11-08 08:00 AM -2.20 67.90 809.20 0.20 306.00 -7.33 3.37 83.70 1.50 0.00 12.44
2022-11-08 07:00 AM -4.50 81.10 809.80 5.20 298.00 -7.25 3.37 9.55 1.40 0.00 12.28
2022-11-08 06:00 AM -5.50 78.60 809.60 2.50 294.00 -8.63 3.36 -10.90 1.40 0.00 12.30
2022-11-08 05:00 AM -4.60 80.70 809.60 1.70 5.00 -7.41 3.36 -10.85 1.40 0.00 12.31
2022-11-08 04:00 AM -5.90 83.50 809.60 2.30 68.00 -8.24 3.36 -12.92 1.30 0.00 12.34
2022-11-08 03:00 AM -2.80 75.70 809.90 5.90 179.00 -6.49 3.36 -10.27 1.50 0.00 12.35
2022-11-08 02:00 AM -3.60 81.70 809.90 7.50 234.00 -6.27 3.36 -10.28 1.50 0.00 12.38
2022-11-08 01:00 AM -2.90 78.60 810.10 4.90 219.00 -6.10 3.36 -9.76 1.50 0.00 12.40
2022-11-08 12:00 AM -2.40 72.10 809.70 8.30 246.00 -6.74 3.36 -10.06 1.60 0.00 12.42